createdAt,value
2018-12-30T00:00:00.261Z,59.80
2018-12-30T00:01:04.706Z,59.70
2018-12-30T00:03:12.527Z,59.90
2018-12-30T00:10:37.534Z,59.80
2018-12-30T00:13:48.687Z,59.60
2018-12-30T00:15:56.993Z,59.60
2018-12-30T00:21:15.958Z,59.60
2018-12-30T00:24:27.129Z,59.30
2018-12-30T00:26:34.909Z,58.80
2018-12-30T00:28:42.689Z,59.10
2018-12-30T00:31:53.844Z,59.00
2018-12-30T00:32:58.253Z,59.20
2018-12-30T00:34:02.677Z,59.10
2018-12-30T00:35:07.088Z,59.10
2018-12-30T00:38:18.248Z,59.30
2018-12-30T00:42:32.852Z,59.40
2018-12-30T00:45:43.997Z,59.40
2018-12-30T00:51:01.879Z,59.60
2018-12-30T00:52:06.278Z,60.30
2018-12-30T00:54:14.069Z,59.80
2018-12-30T00:56:21.840Z,59.80
2018-12-30T00:59:32.976Z,59.60
2018-12-30T01:00:37.568Z,59.60
2018-12-30T01:01:42.275Z,59.70
2018-12-30T01:02:46.670Z,59.60
2018-12-30T01:03:52.546Z,59.60
2018-12-30T01:06:00.363Z,59.80
2018-12-30T01:08:08.109Z,59.60
2018-12-30T01:09:12.500Z,59.70
2018-12-30T01:15:33.875Z,59.90
2018-12-30T01:19:48.392Z,59.90
2018-12-30T01:20:52.800Z,59.80
2018-12-30T01:21:57.197Z,59.90
2018-12-30T01:25:08.329Z,60.10
2018-12-30T01:27:16.165Z,60.00
2018-12-30T01:28:20.560Z,60.20
2018-12-30T01:29:24.961Z,60.30
2018-12-30T01:31:32.741Z,60.30
2018-12-30T01:36:50.633Z,60.40
2018-12-30T01:37:55.036Z,60.40
2018-12-30T01:38:59.431Z,60.30
2018-12-30T01:40:04.653Z,60.40
2018-12-30T01:42:12.436Z,60.20
2018-12-30T01:43:17.869Z,60.30
2018-12-30T01:45:25.656Z,61.10
2018-12-30T01:48:36.781Z,60.50
2018-12-30T01:50:44.558Z,60.60
2018-12-30T01:51:48.949Z,60.60
2018-12-30T01:53:56.950Z,60.70
2018-12-30T01:56:05.365Z,60.80
2018-12-30T01:57:09.769Z,60.90
2018-12-30T01:58:14.155Z,60.90
2018-12-30T02:02:28.669Z,61.20
2018-12-30T02:03:33.064Z,61.30
2018-12-30T02:10:57.719Z,61.50
2018-12-30T02:12:02.307Z,61.50
2018-12-30T02:14:10.186Z,61.50
2018-12-30T02:16:18.068Z,61.10
2018-12-30T02:17:22.463Z,61.20
2018-12-30T02:20:33.612Z,61.20
2018-12-30T02:21:41.213Z,61.40
2018-12-30T02:22:44.232Z,61.10
2018-12-30T02:24:52.002Z,61.60
2018-12-30T02:25:56.412Z,61.50
2018-12-30T02:27:00.547Z,61.60
2018-12-30T02:28:05.061Z,61.40
2018-12-30T02:29:09.472Z,61.60
2018-12-30T02:30:13.884Z,61.60
2018-12-30T02:34:28.712Z,61.60
2018-12-30T02:35:33.811Z,61.60
2018-12-30T02:37:41.580Z,61.60
2018-12-30T02:39:49.352Z,61.60
2018-12-30T02:43:00.486Z,61.60
2018-12-30T02:44:04.869Z,61.60
2018-12-30T02:45:09.280Z,61.60
2018-12-30T02:49:23.792Z,61.60
2018-12-30T02:52:35.134Z,61.70
2018-12-30T02:57:54.053Z,61.50
2018-12-30T03:01:05.190Z,61.50
2018-12-30T03:04:16.343Z,61.50
2018-12-30T03:06:24.176Z,61.90
2018-12-30T03:07:28.569Z,61.60
2018-12-30T03:09:36.091Z,61.50
2018-12-30T03:10:40.779Z,61.60
2018-12-30T03:11:45.270Z,61.80
2018-12-30T03:12:49.656Z,61.80
2018-12-30T03:14:57.433Z,61.80
2018-12-30T03:16:01.835Z,61.80
2018-12-30T03:18:09.606Z,61.90
2018-12-30T03:20:17.380Z,62.00
2018-12-30T03:21:21.768Z,62.20
2018-12-30T03:23:29.292Z,62.10
2018-12-30T03:26:40.190Z,62.20
2018-12-30T03:27:44.567Z,62.00
2018-12-30T03:31:58.849Z,62.20
2018-12-30T03:35:09.819Z,62.40
2018-12-30T03:38:21.761Z,62.80
2018-12-30T03:41:32.671Z,62.20
2018-12-30T03:43:40.191Z,62.60
2018-12-30T03:44:44.454Z,62.50
2018-12-30T03:46:52.042Z,62.40
2018-12-30T03:47:56.191Z,62.60
2018-12-30T03:50:03.723Z,62.60
2018-12-30T03:53:14.703Z,62.80
2018-12-30T03:55:22.229Z,62.90
2018-12-30T03:58:33.119Z,62.70
2018-12-30T03:59:37.281Z,63.00
2018-12-30T04:00:41.441Z,63.10
2018-12-30T04:07:02.444Z,62.90
2018-12-30T04:08:06.603Z,62.80
2018-12-30T04:10:14.720Z,62.70
2018-12-30T04:11:19.114Z,62.90
2018-12-30T04:14:30.006Z,62.80
2018-12-30T04:16:37.543Z,62.60
2018-12-30T04:17:41.676Z,62.60
2018-12-30T04:22:59.322Z,62.40
2018-12-30T04:28:16.960Z,62.30
2018-12-30T04:29:22.130Z,62.30
2018-12-30T04:30:26.302Z,62.30
2018-12-30T04:32:33.822Z,62.20
2018-12-30T04:33:37.973Z,62.20
2018-12-30T04:34:42.112Z,62.10
2018-12-30T04:35:46.265Z,62.20
2018-12-30T04:37:53.785Z,62.10
2018-12-30T04:40:01.306Z,62.10
2018-12-30T04:41:05.467Z,62.00
2018-12-30T04:42:09.608Z,62.00
2018-12-30T04:43:13.796Z,61.80
2018-12-30T04:48:31.452Z,61.60
2018-12-30T04:49:35.601Z,61.90
2018-12-30T04:50:40.142Z,61.50
2018-12-30T04:51:44.480Z,61.60
2018-12-30T04:53:52.005Z,61.50
2018-12-30T04:54:56.164Z,61.50
2018-12-30T04:56:00.319Z,61.50
2018-12-30T04:57:04.463Z,61.50
2018-12-30T05:02:22.209Z,61.60
2018-12-30T05:03:26.348Z,61.60
2018-12-30T05:04:30.509Z,61.60
2018-12-30T05:05:34.665Z,61.60
2018-12-30T05:06:39.318Z,61.70
2018-12-30T05:07:43.436Z,61.60
2018-12-30T05:10:54.337Z,61.60
2018-12-30T05:18:18.717Z,61.60
2018-12-30T05:19:22.887Z,61.60
2018-12-30T05:23:37.221Z,61.60
2018-12-30T05:26:48.298Z,61.60
2018-12-30T05:27:52.465Z,61.70
2018-12-30T05:29:59.973Z,61.60
2018-12-30T05:31:04.133Z,61.60
2018-12-30T05:32:08.273Z,61.60
2018-12-30T05:39:32.694Z,61.60
2018-12-30T05:42:43.832Z,61.60
2018-12-30T05:43:50.465Z,61.60
2018-12-30T05:47:01.444Z,61.60
2018-12-30T05:48:05.602Z,61.70
2018-12-30T05:55:31.127Z,61.60
2018-12-30T05:56:35.240Z,61.60
2018-12-30T05:57:39.380Z,61.60
2018-12-30T05:58:43.550Z,61.60
2018-12-30T05:59:47.688Z,61.60
2018-12-30T06:00:51.864Z,61.60
2018-12-30T06:05:06.219Z,62.00
2018-12-30T06:09:21.508Z,61.60
2018-12-30T06:11:29.045Z,61.60
2018-12-30T06:13:36.575Z,61.60
2018-12-30T06:15:44.094Z,61.70
2018-12-30T06:18:55.033Z,61.60
2018-12-30T06:19:59.165Z,61.70
2018-12-30T06:21:03.307Z,61.60
2018-12-30T06:22:07.473Z,61.60
2018-12-30T06:23:11.622Z,61.60
2018-12-30T06:25:19.157Z,61.60
2018-12-30T06:26:23.648Z,61.60
2018-12-30T06:28:31.186Z,61.70
2018-12-30T06:29:35.352Z,61.70
2018-12-30T06:31:42.876Z,61.60
2018-12-30T06:37:00.523Z,61.70
2018-12-30T06:38:04.708Z,61.90
2018-12-30T06:39:09.061Z,61.80
2018-12-30T06:40:13.209Z,61.60
2018-12-30T06:46:34.215Z,61.80
2018-12-30T06:48:41.996Z,61.80
2018-12-30T06:51:52.898Z,61.90
2018-12-30T06:52:57.718Z,62.10
2018-12-30T06:54:02.440Z,62.00
2018-12-30T06:59:20.169Z,62.10
2018-12-30T07:00:24.297Z,62.20
2018-12-30T07:01:28.458Z,62.20
2018-12-30T07:03:35.985Z,62.20
2018-12-30T07:07:50.253Z,62.20
2018-12-30T07:09:58.037Z,62.10
2018-12-30T07:12:05.556Z,62.00
2018-12-30T07:13:09.721Z,62.10
2018-12-30T07:14:13.875Z,62.10
2018-12-30T07:17:24.979Z,62.10
2018-12-30T07:18:29.079Z,62.00
2018-12-30T07:21:39.968Z,62.10
2018-12-30T07:28:00.998Z,62.20
2018-12-30T07:31:11.885Z,62.20
2018-12-30T07:35:26.725Z,62.10
2018-12-30T07:37:34.349Z,62.10
2018-12-30T07:38:38.496Z,62.00
2018-12-30T07:41:50.421Z,61.90
2018-12-30T07:43:57.949Z,61.90
2018-12-30T07:46:05.463Z,61.90
2018-12-30T07:47:09.743Z,62.00
2018-12-30T07:52:27.380Z,62.00
2018-12-30T07:58:48.394Z,61.90
2018-12-30T08:03:02.658Z,62.00
2018-12-30T08:08:20.823Z,61.90
2018-12-30T08:10:28.343Z,61.80
2018-12-30T08:12:35.882Z,61.80
2018-12-30T08:13:40.041Z,61.90
2018-12-30T08:15:48.960Z,61.70
2018-12-30T08:16:53.463Z,61.70
2018-12-30T08:20:05.938Z,61.60
2018-12-30T08:23:21.436Z,61.60
2018-12-30T08:25:26.366Z,61.60
2018-12-30T08:26:30.508Z,61.70
2018-12-30T08:29:41.423Z,61.10
2018-12-30T08:38:09.188Z,60.30
2018-12-30T08:39:13.633Z,60.50
2018-12-30T08:40:17.753Z,60.60
2018-12-30T08:42:25.341Z,60.60
2018-12-30T08:45:36.240Z,60.60
2018-12-30T08:47:44.020Z,60.60
2018-12-30T08:55:09.031Z,60.60
2018-12-30T08:58:20.001Z,60.50
2018-12-30T08:59:24.197Z,60.50
2018-12-30T09:01:31.950Z,59.70
2018-12-30T09:03:39.713Z,60.00
2018-12-30T09:04:43.873Z,60.10
2018-12-30T09:06:52.148Z,59.90
2018-12-30T09:07:56.621Z,59.40
2018-12-30T09:10:06.487Z,59.60
2018-12-30T09:11:10.646Z,60.00
2018-12-30T09:16:28.289Z,60.30
2018-12-30T09:18:35.835Z,59.90
2018-12-30T09:19:40.029Z,60.00
2018-12-30T09:20:44.209Z,59.90
2018-12-30T09:21:48.347Z,60.20
2018-12-30T09:22:52.496Z,60.20
2018-12-30T09:25:00.042Z,59.50
2018-12-30T09:27:07.816Z,59.90
2018-12-30T09:28:11.957Z,59.70
2018-12-30T09:29:16.169Z,59.30
2018-12-30T09:30:20.338Z,58.90
2018-12-30T09:32:27.868Z,59.00
2018-12-30T09:33:32.019Z,58.90
2018-12-30T09:35:39.536Z,59.00
2018-12-30T09:36:43.680Z,59.20
2018-12-30T09:42:02.018Z,58.70
2018-12-30T09:43:06.165Z,58.60
2018-12-30T09:44:10.321Z,58.40
2018-12-30T09:45:14.463Z,58.60
2018-12-30T09:46:18.627Z,57.30
2018-12-30T09:47:22.782Z,57.40
2018-12-30T09:48:33.623Z,57.20
2018-12-30T09:49:33.077Z,57.30
2018-12-30T09:50:37.343Z,57.40
2018-12-30T09:55:55.173Z,57.60
2018-12-30T10:00:09.450Z,57.50
2018-12-30T10:01:13.618Z,57.10
2018-12-30T10:06:31.293Z,56.40
2018-12-30T10:08:38.832Z,56.10
2018-12-30T10:11:49.764Z,55.80
2018-12-30T10:13:57.354Z,55.60
2018-12-30T10:15:09.280Z,56.00
2018-12-30T10:16:07.736Z,56.00
2018-12-30T10:17:11.904Z,56.10
2018-12-30T10:19:20.421Z,56.50
2018-12-30T10:20:25.411Z,56.60
2018-12-30T10:21:29.621Z,56.70
2018-12-30T10:22:34.429Z,56.90
2018-12-30T10:23:38.629Z,57.10
2018-12-30T10:24:43.058Z,57.30
2018-12-30T10:28:57.392Z,57.50
2018-12-30T10:33:13.063Z,57.70
2018-12-30T10:36:24.325Z,57.00
2018-12-30T10:37:28.594Z,56.80
2018-12-30T10:42:46.378Z,56.50
2018-12-30T10:44:53.944Z,57.30
2018-12-30T10:47:02.299Z,56.40
2018-12-30T10:48:06.520Z,56.00
2018-12-30T10:58:43.158Z,56.90
2018-12-30T11:00:50.696Z,56.80
2018-12-30T11:02:58.242Z,56.50
2018-12-30T11:09:19.891Z,56.20
2018-12-30T11:11:28.177Z,56.00
2018-12-30T11:13:35.703Z,56.10
2018-12-30T11:15:43.275Z,56.30
2018-12-30T11:18:54.212Z,56.20
2018-12-30T11:22:06.948Z,56.00
2018-12-30T11:23:11.116Z,55.90
2018-12-30T11:24:15.284Z,55.90
2018-12-30T11:25:19.477Z,55.60
2018-12-30T11:28:30.400Z,55.10
2018-12-30T11:29:34.635Z,54.50
2018-12-30T11:30:38.819Z,55.30
2018-12-30T11:32:46.373Z,54.70
2018-12-30T11:33:50.532Z,54.60
2018-12-30T11:39:08.283Z,54.00
2018-12-30T11:43:23.832Z,53.30
2018-12-30T11:47:38.108Z,53.40
2018-12-30T11:49:45.670Z,53.00
2018-12-30T11:56:07.658Z,53.30
2018-12-30T11:57:11.833Z,53.90
2018-12-30T11:59:19.428Z,53.60
2018-12-30T12:00:23.592Z,53.70
2018-12-30T12:04:37.917Z,54.00
2018-12-30T12:05:42.084Z,53.80
2018-12-30T12:07:49.633Z,54.20
2018-12-30T12:12:03.945Z,54.00
2018-12-30T12:13:08.126Z,54.40
2018-12-30T12:16:19.195Z,54.70
2018-12-30T12:22:40.996Z,55.10
2018-12-30T12:23:45.164Z,55.00
2018-12-30T12:24:49.358Z,54.80
2018-12-30T12:25:53.530Z,55.20
2018-12-30T12:26:57.967Z,54.90
2018-12-30T12:28:02.133Z,54.90
2018-12-30T12:29:06.303Z,54.50
2018-12-30T12:30:10.460Z,54.80
2018-12-30T12:31:14.637Z,54.90
2018-12-30T12:32:18.821Z,55.10
2018-12-30T12:36:34.765Z,55.40
2018-12-30T12:40:49.942Z,55.80
2018-12-30T12:41:54.379Z,55.70
2018-12-30T12:42:58.524Z,55.90
2018-12-30T12:45:06.081Z,55.80
2018-12-30T12:46:10.249Z,56.00
2018-12-30T12:47:14.417Z,56.30
2018-12-30T12:51:28.797Z,56.60
2018-12-30T12:53:36.341Z,56.60
2018-12-30T12:55:43.972Z,56.90
2018-12-30T12:58:56.088Z,57.30
2018-12-30T13:00:00.268Z,57.50
2018-12-30T13:01:04.657Z,57.50
2018-12-30T13:02:08.830Z,57.50
2018-12-30T13:04:16.475Z,57.60
2018-12-30T13:05:20.654Z,58.00
2018-12-30T13:06:24.805Z,57.90
2018-12-30T13:07:28.972Z,58.20
2018-12-30T13:08:33.152Z,58.30
2018-12-30T13:11:44.065Z,58.20
2018-12-30T13:12:48.229Z,58.30
2018-12-30T13:13:52.426Z,58.10
2018-12-30T13:14:56.596Z,57.80
2018-12-30T13:21:17.705Z,58.40
2018-12-30T13:23:25.248Z,58.70
2018-12-30T13:25:32.796Z,58.80
2018-12-30T13:27:40.347Z,58.80
2018-12-30T13:28:44.508Z,58.80
2018-12-30T13:30:52.058Z,58.80
2018-12-30T13:35:06.409Z,58.40
2018-12-30T13:37:14.178Z,58.60
2018-12-30T13:38:18.600Z,58.70
2018-12-30T13:40:26.191Z,59.00
2018-12-30T13:42:34.821Z,58.80
2018-12-30T13:46:49.812Z,59.10
2018-12-30T13:47:53.969Z,58.90
2018-12-30T13:50:01.600Z,59.30
2018-12-30T13:51:05.768Z,59.40
2018-12-30T13:52:09.924Z,59.50
2018-12-30T13:56:24.264Z,60.00
2018-12-30T13:58:31.809Z,60.30
2018-12-30T13:59:35.985Z,60.20
2018-12-30T14:00:40.141Z,60.10
2018-12-30T14:02:47.685Z,60.20
2018-12-30T14:05:58.627Z,60.40
2018-12-30T14:10:13.684Z,60.50
2018-12-30T14:11:18.891Z,60.50
2018-12-30T14:15:33.211Z,60.70
2018-12-30T14:19:47.516Z,60.70
2018-12-30T14:21:55.086Z,61.70
2018-12-30T14:25:06.003Z,61.30
2018-12-30T14:26:10.194Z,61.40
2018-12-30T14:27:14.908Z,61.30
2018-12-30T14:30:26.938Z,61.50
2018-12-30T14:32:34.493Z,61.00
2018-12-30T14:33:38.670Z,61.30
2018-12-30T14:34:42.835Z,61.00
2018-12-30T14:35:48.164Z,60.90
2018-12-30T14:37:55.719Z,61.00
2018-12-30T14:38:59.893Z,61.20
2018-12-30T14:40:04.577Z,61.30
2018-12-30T14:42:12.155Z,61.50
2018-12-30T14:43:16.427Z,61.40
2018-12-30T14:45:24.000Z,61.60
2018-12-30T14:46:33.807Z,61.70
2018-12-30T14:47:34.304Z,61.70
2018-12-30T14:50:45.256Z,62.10
2018-12-30T14:51:49.425Z,62.10
2018-12-30T14:55:03.906Z,62.10
2018-12-30T14:57:09.895Z,62.60
2018-12-30T14:59:17.501Z,62.50
2018-12-30T15:00:21.665Z,62.20
2018-12-30T15:02:29.222Z,63.50
2018-12-30T15:03:33.379Z,62.90
2018-12-30T15:04:37.601Z,62.70
2018-12-30T15:05:41.765Z,62.80
2018-12-30T15:09:57.092Z,62.50
2018-12-30T15:14:11.429Z,62.50
2018-12-30T15:16:19.016Z,62.60
2018-12-30T15:17:23.140Z,62.90
2018-12-30T15:19:30.925Z,62.70
2018-12-30T15:24:48.600Z,62.80
2018-12-30T15:25:53.017Z,62.80
2018-12-30T15:26:57.173Z,63.50
2018-12-30T15:30:08.635Z,63.10
2018-12-30T15:31:12.793Z,63.20
2018-12-30T15:32:16.944Z,63.30
2018-12-30T15:36:31.278Z,63.40
2018-12-30T15:37:35.410Z,63.00
2018-12-30T15:38:39.599Z,63.60
2018-12-30T15:39:43.853Z,63.00
2018-12-30T15:42:54.772Z,63.40
2018-12-30T15:45:02.315Z,63.30
2018-12-30T15:46:06.502Z,63.20
2018-12-30T15:48:14.115Z,63.10
2018-12-30T15:52:28.471Z,62.80
2018-12-30T15:53:32.694Z,63.30
2018-12-30T15:54:36.853Z,63.40
2018-12-30T15:55:41.006Z,63.20
2018-12-30T15:56:45.198Z,63.60
2018-12-30T15:57:49.365Z,63.40
2018-12-30T15:58:53.520Z,63.40
2018-12-30T15:59:57.685Z,63.40
2018-12-30T16:03:08.619Z,63.40
2018-12-30T16:04:12.790Z,63.40
2018-12-30T16:07:23.692Z,63.70
2018-12-30T16:08:27.851Z,63.80
2018-12-30T16:09:32.036Z,63.50
2018-12-30T16:10:36.178Z,63.60
2018-12-30T16:11:40.335Z,63.60
2018-12-30T16:13:47.865Z,63.70
2018-12-30T16:14:52.037Z,63.30
2018-12-30T16:15:56.277Z,63.40
2018-12-30T16:17:00.562Z,63.70
2018-12-30T16:20:12.528Z,63.60
2018-12-30T16:21:16.714Z,63.80
2018-12-30T16:22:20.866Z,63.50
2018-12-30T16:24:28.433Z,63.80
2018-12-30T16:25:32.685Z,63.80
2018-12-30T16:30:50.358Z,63.80
2018-12-30T16:34:01.308Z,63.80
2018-12-30T16:37:12.241Z,63.70
2018-12-30T16:38:16.401Z,64.00
2018-12-30T16:39:20.584Z,63.80
2018-12-30T16:41:28.111Z,64.30
2018-12-30T16:42:32.272Z,64.00
2018-12-30T16:44:39.810Z,63.60
2018-12-30T16:46:47.365Z,63.70
2018-12-30T16:49:58.277Z,63.40
2018-12-30T16:51:02.455Z,63.20
2018-12-30T16:52:06.596Z,63.10
2018-12-30T16:53:11.664Z,63.00
2018-12-30T16:54:16.305Z,63.50
2018-12-30T16:58:31.505Z,63.00
2018-12-30T16:59:35.673Z,63.10
2018-12-30T17:00:39.829Z,62.90
2018-12-30T17:03:50.737Z,63.30
2018-12-30T17:05:58.293Z,63.40
2018-12-30T17:07:02.681Z,63.30
2018-12-30T17:08:06.840Z,63.30
2018-12-30T17:10:14.428Z,63.10
2018-12-30T17:13:25.353Z,62.90
2018-12-30T17:16:36.273Z,63.10
2018-12-30T17:17:40.446Z,63.40
2018-12-30T17:19:47.976Z,63.20
2018-12-30T17:24:02.342Z,63.50
2018-12-30T17:26:11.296Z,63.30
2018-12-30T17:28:19.548Z,63.40
2018-12-30T17:29:23.688Z,63.50
2018-12-30T17:30:27.842Z,64.10
2018-12-30T17:31:32.005Z,63.30
2018-12-30T17:34:42.919Z,63.90
2018-12-30T17:37:53.832Z,63.20
2018-12-30T17:40:01.974Z,63.00
2018-12-30T17:41:06.131Z,63.10
2018-12-30T17:44:17.499Z,63.40
2018-12-30T17:45:22.027Z,63.70
2018-12-30T17:46:26.197Z,63.40
2018-12-30T17:47:30.340Z,63.40
2018-12-30T17:49:38.542Z,63.30
2018-12-30T17:50:42.714Z,63.30
2018-12-30T17:52:50.239Z,63.20
2018-12-30T17:53:54.396Z,63.40
2018-12-30T17:57:05.315Z,63.40
2018-12-30T17:58:09.471Z,63.50
2018-12-30T17:59:13.656Z,63.10
2018-12-30T18:01:21.202Z,63.20
2018-12-30T18:02:25.395Z,63.10
2018-12-30T18:04:32.907Z,63.20
2018-12-30T18:05:37.070Z,63.20
2018-12-30T18:06:41.219Z,63.20
2018-12-30T18:08:48.748Z,63.30
2018-12-30T18:11:59.665Z,63.00
2018-12-30T18:13:03.819Z,63.10
2018-12-30T18:14:07.969Z,63.20
2018-12-30T18:17:18.876Z,63.40
2018-12-30T18:19:26.417Z,63.00
2018-12-30T18:21:33.953Z,63.10
2018-12-30T18:22:38.103Z,63.50
2018-12-30T18:24:45.649Z,63.20
2018-12-30T18:25:49.787Z,63.50
2018-12-30T18:29:01.740Z,63.40
2018-12-30T18:33:18.203Z,63.20
2018-12-30T18:34:22.607Z,63.20
2018-12-30T18:37:33.505Z,63.10
2018-12-30T18:39:41.055Z,63.10
2018-12-30T18:42:51.973Z,63.20
2018-12-30T18:46:02.880Z,63.10
2018-12-30T18:48:10.440Z,63.20
2018-12-30T18:50:17.984Z,63.20
2018-12-30T18:51:22.169Z,63.10
2018-12-30T18:53:30.051Z,63.10
2018-12-30T18:54:35.119Z,63.10
2018-12-30T18:55:39.283Z,63.10
2018-12-30T18:56:43.436Z,63.70
2018-12-30T18:57:47.597Z,63.20
2018-12-30T18:59:55.149Z,63.10
2018-12-30T19:03:06.842Z,63.10
2018-12-30T19:04:11.056Z,63.10
2018-12-30T19:07:21.977Z,63.20
2018-12-30T19:08:26.161Z,63.10
2018-12-30T19:09:30.325Z,63.20
2018-12-30T19:10:34.468Z,63.30
2018-12-30T19:13:45.713Z,64.30
2018-12-30T19:14:50.447Z,64.30
2018-12-30T19:15:55.532Z,63.80
2018-12-30T19:18:03.793Z,63.50
2018-12-30T19:20:11.328Z,63.50
2018-12-30T19:21:15.490Z,63.30
2018-12-30T19:25:29.832Z,64.20
2018-12-30T19:26:34.032Z,63.40
2018-12-30T19:29:44.960Z,63.40
2018-12-30T19:31:52.730Z,63.60
2018-12-30T19:32:56.886Z,63.40
2018-12-30T19:34:01.045Z,64.20
2018-12-30T19:37:11.962Z,63.30
2018-12-30T19:38:16.183Z,64.20
2018-12-30T19:39:20.352Z,63.20
2018-12-30T19:43:34.634Z,64.00
2018-12-30T19:44:38.866Z,63.10
2018-12-30T19:49:56.513Z,64.30
2018-12-30T19:54:11.333Z,63.40
2018-12-30T19:55:15.484Z,63.20
2018-12-30T19:56:22.111Z,64.20
2018-12-30T19:57:25.945Z,63.30
2018-12-30T20:02:43.593Z,63.30
2018-12-30T20:03:47.754Z,63.20
2018-12-30T20:09:06.332Z,64.10
2018-12-30T20:10:10.540Z,64.20
2018-12-30T20:15:28.148Z,63.10
2018-12-30T20:16:32.309Z,63.10
2018-12-30T20:17:36.475Z,63.20
2018-12-30T20:18:40.634Z,63.20
2018-12-30T20:20:48.406Z,63.20
2018-12-30T20:22:55.920Z,64.40
2018-12-30T20:24:00.081Z,64.30
2018-12-30T20:26:07.605Z,64.60
2018-12-30T20:32:28.633Z,64.60
2018-12-30T20:33:32.779Z,64.60
2018-12-30T20:37:47.164Z,64.30
2018-12-30T20:39:55.566Z,64.10
2018-12-30T20:40:59.763Z,64.20
2018-12-30T20:43:07.285Z,64.20
2018-12-30T20:44:11.489Z,64.20
2018-12-30T20:46:19.062Z,64.40
2018-12-30T20:47:23.445Z,64.70
2018-12-30T20:48:27.596Z,64.50
2018-12-30T20:50:35.108Z,64.50
2018-12-30T20:57:03.077Z,64.40
2018-12-30T20:59:10.605Z,64.40
2018-12-30T21:04:28.239Z,64.40
2018-12-30T21:05:32.425Z,64.50
2018-12-30T21:06:36.818Z,64.30
2018-12-30T21:07:41.901Z,64.40
2018-12-30T21:08:46.231Z,64.30
2018-12-30T21:10:53.729Z,64.40
2018-12-30T21:13:01.244Z,64.30
2018-12-30T21:14:05.418Z,64.20
2018-12-30T21:19:24.255Z,64.20
2018-12-30T21:20:29.337Z,64.10
2018-12-30T21:23:40.258Z,64.00
2018-12-30T21:27:54.517Z,63.20
2018-12-30T21:28:58.672Z,64.20
2018-12-30T21:32:09.724Z,63.20
2018-12-30T21:35:20.601Z,63.20
2018-12-30T21:37:28.137Z,64.20
2018-12-30T21:38:32.280Z,63.20
2018-12-30T21:41:43.192Z,63.20
2018-12-30T21:42:47.358Z,63.10
2018-12-30T21:43:51.505Z,64.10
2018-12-30T21:44:55.669Z,63.20
2018-12-30T21:45:59.897Z,64.20
2018-12-30T21:47:04.235Z,63.20
2018-12-30T21:50:15.152Z,63.10
2018-12-30T21:51:19.392Z,63.20
2018-12-30T21:53:26.914Z,64.00
2018-12-30T21:54:31.060Z,63.20
2018-12-30T21:56:38.587Z,64.20
2018-12-30T21:57:42.757Z,63.50
2018-12-30T22:00:53.687Z,63.40
2018-12-30T22:01:57.851Z,63.20
2018-12-30T22:04:05.645Z,63.30
2018-12-30T22:05:09.792Z,63.10
2018-12-30T22:06:13.952Z,63.20
2018-12-30T22:08:21.480Z,63.90
2018-12-30T22:10:29.017Z,63.30
2018-12-30T22:11:33.177Z,63.20
2018-12-30T22:15:47.460Z,63.40
2018-12-30T22:17:54.988Z,63.40
2018-12-30T22:18:59.489Z,63.50
2018-12-30T22:20:04.092Z,63.60
2018-12-30T22:22:11.635Z,63.70
2018-12-30T22:26:26.190Z,63.60
2018-12-30T22:27:30.349Z,63.50
2018-12-30T22:29:37.872Z,63.40
2018-12-30T22:31:45.419Z,63.60
2018-12-30T22:32:49.562Z,63.60
2018-12-30T22:34:57.609Z,63.20
2018-12-30T22:37:05.147Z,63.40
2018-12-30T22:38:11.057Z,63.40
2018-12-30T22:39:15.516Z,63.40
2018-12-30T22:40:19.700Z,64.10
2018-12-30T22:41:23.900Z,63.50
2018-12-30T22:42:32.671Z,63.40
2018-12-30T22:45:40.939Z,63.60
2018-12-30T22:46:45.091Z,63.80
2018-12-30T22:47:49.252Z,63.70
2018-12-30T22:48:53.442Z,63.70
2018-12-30T22:51:01.033Z,63.60
2018-12-30T22:53:08.552Z,63.60
2018-12-30T22:57:22.849Z,63.30
2018-12-30T23:00:33.797Z,63.80
2018-12-30T23:01:38.186Z,63.60
2018-12-30T23:02:42.328Z,63.40
2018-12-30T23:04:49.856Z,63.60
2018-12-30T23:06:57.402Z,63.70
2018-12-30T23:08:01.641Z,63.80
2018-12-30T23:09:06.056Z,63.60
2018-12-30T23:10:10.199Z,64.00
2018-12-30T23:13:21.128Z,63.80
2018-12-30T23:18:39.804Z,63.80
2018-12-30T23:19:44.009Z,63.70
2018-12-30T23:22:54.924Z,63.90
2018-12-30T23:23:59.089Z,63.90
2018-12-30T23:26:06.985Z,63.60
2018-12-30T23:27:11.153Z,63.80
2018-12-30T23:28:15.323Z,63.70
2018-12-30T23:30:23.974Z,63.70
2018-12-30T23:31:28.118Z,63.60
2018-12-30T23:32:32.272Z,63.70
2018-12-30T23:33:36.424Z,63.90
2018-12-30T23:34:40.587Z,63.80
2018-12-30T23:39:58.290Z,63.80
2018-12-30T23:44:12.560Z,63.90
2018-12-30T23:46:20.137Z,64.00
2018-12-30T23:49:31.048Z,63.60
2018-12-30T23:50:35.307Z,64.00
2018-12-30T23:52:42.841Z,63.90
2018-12-30T23:53:47.083Z,63.60
2018-12-30T23:54:51.265Z,63.80
2018-12-30T23:55:55.421Z,64.00
2018-12-30T23:56:59.584Z,64.30
2018-12-30T23:58:03.726Z,63.80
